createdAt,value
2022-12-17T00:02:46.167Z,37.78
2022-12-17T00:05:50.781Z,35.95
2022-12-17T00:08:58.566Z,35.35
2022-12-17T00:12:20.988Z,34.35
2022-12-17T00:15:25.957Z,32.22
2022-12-17T00:18:30.684Z,33.78
2022-12-17T00:21:35.441Z,31.95
2022-12-17T00:24:39.331Z,31.08
2022-12-17T00:27:43.223Z,30.98
2022-12-17T00:31:00.328Z,30.73
2022-12-17T00:34:05.232Z,32.78
2022-12-17T00:37:09.271Z,33.60
2022-12-17T00:40:13.134Z,34.20
2022-12-17T00:43:26.217Z,35.47
2022-12-17T00:46:30.516Z,38.10
2022-12-17T00:49:34.534Z,34.40
2022-12-17T00:52:38.274Z,39.10
2022-12-17T00:55:42.149Z,35.67
2022-12-17T00:58:46.279Z,37.75
2022-12-17T01:01:50.546Z,34.55
2022-12-17T01:04:55.378Z,36.58
2022-12-17T01:08:01.158Z,35.88
2022-12-17T01:11:05.911Z,36.10
2022-12-17T01:14:10.508Z,34.35
2022-12-17T01:17:14.700Z,34.50
2022-12-17T01:20:18.119Z,30.83
2022-12-17T01:23:21.854Z,31.48
2022-12-17T01:26:25.625Z,32.97
2022-12-17T01:29:29.582Z,33.55
2022-12-17T01:32:33.436Z,31.15
2022-12-17T01:35:39.051Z,32.38
2022-12-17T01:38:42.691Z,31.55
2022-12-17T01:41:48.617Z,31.08
2022-12-17T01:45:06.775Z,30.42
2022-12-17T01:48:22.444Z,28.60
2022-12-17T01:51:26.264Z,30.13
2022-12-17T01:54:30.691Z,31.05
2022-12-17T01:57:34.374Z,31.55
2022-12-17T02:00:39.372Z,31.48
2022-12-17T02:03:44.285Z,31.80
2022-12-17T02:06:56.642Z,32.72
2022-12-17T02:10:30.410Z,31.95
2022-12-17T02:13:57.768Z,28.83
2022-12-17T02:17:09.309Z,30.65
2022-12-17T02:20:32.813Z,29.92
2022-12-17T02:23:56.537Z,30.65
2022-12-17T02:27:04.581Z,29.98
2022-12-17T02:30:13.531Z,27.98
2022-12-17T02:33:18.277Z,27.88
2022-12-17T02:36:24.994Z,26.40
2022-12-17T02:39:29.050Z,27.70
2022-12-17T02:42:34.890Z,27.75
2022-12-17T02:45:40.154Z,28.83
2022-12-17T02:48:44.563Z,27.02
2022-12-17T02:51:48.762Z,28.33
2022-12-17T02:54:52.868Z,27.05
2022-12-17T02:57:57.105Z,26.83
2022-12-17T03:01:04.740Z,26.38
2022-12-17T03:04:08.531Z,26.92
2022-12-17T03:07:12.290Z,28.02
2022-12-17T03:10:18.269Z,29.88
2022-12-17T03:13:22.575Z,28.90
2022-12-17T03:16:35.749Z,25.25
2022-12-17T03:19:41.209Z,26.30
2022-12-17T03:22:44.851Z,25.52
2022-12-17T03:25:49.024Z,23.42
2022-12-17T03:28:52.841Z,24.02
2022-12-17T03:31:56.548Z,24.77
2022-12-17T03:35:00.504Z,22.52
2022-12-17T03:38:04.422Z,21.38
2022-12-17T03:41:11.253Z,20.67
2022-12-17T03:44:15.086Z,19.55
2022-12-17T03:47:20.512Z,19.88
2022-12-17T03:50:24.936Z,20.77
2022-12-17T03:53:28.651Z,22.20
2022-12-17T03:56:32.522Z,20.40
2022-12-17T03:59:36.462Z,22.58
2022-12-17T04:02:40.693Z,22.35
2022-12-17T04:05:49.453Z,21.52
2022-12-17T04:08:53.719Z,24.15
2022-12-17T04:11:57.646Z,24.75
2022-12-17T04:15:01.535Z,25.42
2022-12-17T04:18:05.476Z,23.60
2022-12-17T04:21:09.416Z,25.27
2022-12-17T04:24:13.216Z,26.30
2022-12-17T04:27:17.081Z,24.73
2022-12-17T04:30:20.733Z,23.10
2022-12-17T04:33:24.501Z,23.33
2022-12-17T04:36:28.516Z,24.92
2022-12-17T04:39:32.250Z,25.02
2022-12-17T04:42:36.159Z,24.50
2022-12-17T04:45:40.273Z,26.85
2022-12-17T04:48:44.003Z,27.08
2022-12-17T04:51:47.794Z,25.33
2022-12-17T04:54:51.682Z,24.08
2022-12-17T04:57:55.450Z,24.83
2022-12-17T05:00:59.188Z,23.90
2022-12-17T05:04:03.064Z,24.50
2022-12-17T05:07:06.777Z,25.45
2022-12-17T05:10:10.638Z,22.65
2022-12-17T05:13:18.591Z,24.30
2022-12-17T05:16:22.373Z,22.17
2022-12-17T05:19:26.317Z,20.25
2022-12-17T05:22:32.889Z,18.63
2022-12-17T05:25:37.679Z,21.40
2022-12-17T05:28:41.656Z,21.60
2022-12-17T05:32:05.327Z,20.05
2022-12-17T05:35:09.016Z,20.77
2022-12-17T05:38:12.779Z,20.55
2022-12-17T05:41:18.092Z,20.77
2022-12-17T05:44:21.918Z,19.45
2022-12-17T05:47:25.756Z,18.80
2022-12-17T05:50:29.424Z,20.25
2022-12-17T05:53:34.448Z,19.27
2022-12-17T05:56:38.448Z,19.75
2022-12-17T05:59:42.136Z,21.60
2022-12-17T06:02:46.156Z,19.98
2022-12-17T06:05:50.270Z,19.15
2022-12-17T06:08:54.116Z,20.17
2022-12-17T06:12:02.370Z,18.60
2022-12-17T06:15:06.960Z,18.42
2022-12-17T06:18:16.469Z,17.70
2022-12-17T06:21:37.481Z,18.67
2022-12-17T06:24:45.746Z,18.23
2022-12-17T06:27:49.905Z,15.60
2022-12-17T06:30:53.539Z,20.45
2022-12-17T06:33:58.078Z,22.02
2022-12-17T06:37:01.770Z,20.63
2022-12-17T06:40:05.898Z,21.88
2022-12-17T06:43:13.842Z,22.75
2022-12-17T06:46:17.708Z,21.92
2022-12-17T06:49:21.204Z,21.95
2022-12-17T06:52:25.122Z,21.50
2022-12-17T06:55:28.782Z,21.83
2022-12-17T06:58:32.639Z,21.02
2022-12-17T07:01:36.598Z,23.52
2022-12-17T07:04:40.803Z,21.58
2022-12-17T07:07:44.595Z,22.40
2022-12-17T07:10:48.461Z,23.20
2022-12-17T07:13:52.305Z,24.20
2022-12-17T07:16:56.100Z,22.40
2022-12-17T07:19:59.933Z,22.15
2022-12-17T07:23:03.812Z,21.40
2022-12-17T07:26:07.692Z,22.05
2022-12-17T07:29:11.359Z,21.55
2022-12-17T07:32:15.129Z,20.23
2022-12-17T07:35:19.031Z,23.20
2022-12-17T07:38:24.035Z,23.55
2022-12-17T07:41:28.139Z,24.10
2022-12-17T07:44:31.880Z,23.85
2022-12-17T07:47:35.750Z,24.65
2022-12-17T07:50:39.476Z,23.35
2022-12-17T07:53:43.507Z,25.05
2022-12-17T07:56:47.414Z,23.73
2022-12-17T07:59:51.349Z,22.60
2022-12-17T08:02:55.320Z,24.95
2022-12-17T08:05:59.055Z,26.05
2022-12-17T08:09:02.864Z,23.23
2022-12-17T08:12:06.543Z,23.13
2022-12-17T08:15:10.365Z,25.25
2022-12-17T08:18:26.430Z,24.98
2022-12-17T08:21:31.357Z,24.30
2022-12-17T08:24:35.345Z,25.98
2022-12-17T08:27:39.242Z,26.85
2022-12-17T08:30:43.102Z,25.08
2022-12-17T08:33:46.804Z,27.77
2022-12-17T08:36:50.813Z,27.42
2022-12-17T08:39:54.567Z,26.98
2022-12-17T08:42:58.581Z,25.92
2022-12-17T08:46:09.498Z,27.30
2022-12-17T08:49:12.997Z,27.42
2022-12-17T08:52:16.929Z,26.73
2022-12-17T08:55:20.847Z,26.63
2022-12-17T08:58:24.761Z,27.05
2022-12-17T09:01:28.771Z,28.08
2022-12-17T09:04:33.071Z,26.98
2022-12-17T09:07:36.869Z,26.05
2022-12-17T09:10:40.831Z,25.35
2022-12-17T09:13:44.550Z,26.15
2022-12-17T09:16:48.547Z,29.42
2022-12-17T09:19:52.442Z,29.10
2022-12-17T09:22:56.491Z,27.50
2022-12-17T09:26:00.226Z,27.70
2022-12-17T09:29:04.131Z,28.25
2022-12-17T09:32:07.941Z,29.48
2022-12-17T09:35:11.780Z,30.67
2022-12-17T09:38:16.197Z,29.10
2022-12-17T09:41:59.721Z,30.50
2022-12-17T09:45:17.014Z,30.63
2022-12-17T09:48:32.263Z,30.90
2022-12-17T09:51:47.582Z,27.98
2022-12-17T09:55:07.102Z,26.80
2022-12-17T10:01:15.460Z,30.50
2022-12-17T10:04:20.157Z,31.20
2022-12-17T10:07:39.526Z,31.70
2022-12-17T10:10:45.606Z,30.60
2022-12-17T10:13:49.572Z,30.10
2022-12-17T10:17:05.867Z,30.58
2022-12-17T10:20:13.620Z,30.80
2022-12-17T10:23:17.463Z,32.10
2022-12-17T10:26:25.422Z,30.63
2022-12-17T10:29:34.320Z,32.17
2022-12-17T10:32:41.723Z,23.13
2022-12-17T10:35:54.567Z,30.40
2022-12-17T10:38:58.905Z,32.83
2022-12-17T10:42:02.606Z,32.50
2022-12-17T10:45:06.491Z,31.20
2022-12-17T10:48:10.332Z,32.13
2022-12-17T10:51:14.209Z,32.05
2022-12-17T10:54:27.738Z,32.70
2022-12-17T10:57:54.351Z,33.97
2022-12-17T11:00:59.239Z,32.13
2022-12-17T11:04:17.418Z,33.17
2022-12-17T11:07:21.986Z,32.38
2022-12-17T11:10:33.926Z,32.22
2022-12-17T11:13:50.276Z,32.20
2022-12-17T11:17:00.858Z,31.33
2022-12-17T11:20:10.877Z,30.13
2022-12-17T11:23:17.867Z,29.42
2022-12-17T11:26:29.214Z,28.80
2022-12-17T11:29:32.956Z,30.02
2022-12-17T11:32:43.010Z,28.17
2022-12-17T11:35:51.249Z,25.70
2022-12-17T11:39:03.919Z,26.65
2022-12-17T11:42:38.693Z,27.92
2022-12-17T11:45:50.084Z,28.25
2022-12-17T11:49:01.709Z,28.55
2022-12-17T11:52:18.247Z,28.52
2022-12-17T11:55:40.853Z,31.00
2022-12-17T11:59:04.416Z,31.08
2022-12-17T12:02:50.734Z,30.30
2022-12-17T12:05:56.885Z,29.10
2022-12-17T12:09:28.437Z,29.38
2022-12-17T12:12:49.000Z,29.10
2022-12-17T12:16:14.751Z,25.90
2022-12-17T12:19:33.704Z,25.77
2022-12-17T12:23:15.835Z,19.42
2022-12-17T12:26:19.411Z,25.88
2022-12-17T12:29:35.655Z,26.58
2022-12-17T12:33:04.354Z,27.52
2022-12-17T12:36:18.876Z,27.65
2022-12-17T12:39:28.882Z,27.88
2022-12-17T12:43:24.062Z,26.42
2022-12-17T12:46:36.588Z,24.40
2022-12-17T12:50:02.133Z,26.52
2022-12-17T12:53:06.451Z,26.25
2022-12-17T12:56:10.254Z,25.70
2022-12-17T12:59:14.057Z,26.75
2022-12-17T13:02:18.181Z,25.60
2022-12-17T13:05:22.788Z,25.55
2022-12-17T13:08:07.856Z,23.63
2022-12-17T13:10:54.412Z,25.73
2022-12-17T13:13:55.900Z,23.15
2022-12-17T13:16:47.757Z,22.40
2022-12-17T13:19:39.518Z,23.83
2022-12-17T13:22:28.570Z,22.55
2022-12-17T13:25:23.310Z,22.80
2022-12-17T13:28:29.163Z,23.73
2022-12-17T13:31:26.128Z,22.40
2022-12-17T13:34:16.174Z,24.33
2022-12-17T13:37:19.881Z,24.45
2022-12-17T13:40:54.598Z,24.17
2022-12-17T13:43:46.597Z,25.80
2022-12-17T13:46:46.944Z,31.23
2022-12-17T13:49:32.795Z,24.52
2022-12-17T13:52:20.723Z,24.98
2022-12-17T13:55:16.643Z,23.70
2022-12-17T13:58:01.998Z,24.83
2022-12-17T14:00:47.501Z,25.90
2022-12-17T14:03:57.070Z,25.33
2022-12-17T14:06:38.616Z,23.50
2022-12-17T14:09:32.025Z,26.20
2022-12-17T14:12:24.999Z,24.60
2022-12-17T14:15:22.607Z,26.30
2022-12-17T14:18:15.904Z,27.08
2022-12-17T14:21:01.223Z,26.25
2022-12-17T14:24:01.347Z,24.90
2022-12-17T14:26:51.142Z,23.60
2022-12-17T14:29:46.619Z,23.58
2022-12-17T14:32:36.845Z,23.67
2022-12-17T14:35:34.852Z,25.42
2022-12-17T14:38:36.981Z,26.92
2022-12-17T14:41:42.570Z,26.05
2022-12-17T14:44:30.181Z,26.88
2022-12-17T14:47:23.786Z,25.92
2022-12-17T14:50:14.182Z,24.95
2022-12-17T14:53:02.586Z,23.88
2022-12-17T14:56:00.107Z,27.67
2022-12-17T14:58:45.867Z,25.77
2022-12-17T15:01:32.408Z,25.67
2022-12-17T15:04:20.909Z,24.73
2022-12-17T15:07:10.957Z,27.38
2022-12-17T15:10:00.094Z,24.77
2022-12-17T15:12:45.705Z,27.08
2022-12-17T15:15:30.945Z,25.58
2022-12-17T15:18:19.748Z,26.90
2022-12-17T15:21:05.666Z,25.13
2022-12-17T15:23:51.205Z,24.50
2022-12-17T15:26:38.980Z,26.13
2022-12-17T15:29:27.014Z,26.38
2022-12-17T15:32:21.234Z,24.23
2022-12-17T15:35:07.496Z,23.27
2022-12-17T15:37:52.907Z,24.30
2022-12-17T15:40:39.160Z,24.52
2022-12-17T15:43:24.311Z,26.35
2022-12-17T15:46:10.693Z,24.35
2022-12-17T15:48:56.667Z,25.20
2022-12-17T15:51:41.793Z,24.77
2022-12-17T15:54:27.190Z,25.80
2022-12-17T15:57:18.491Z,27.02
2022-12-17T16:00:08.045Z,27.08
2022-12-17T16:02:55.592Z,26.55
2022-12-17T16:05:45.035Z,28.45
2022-12-17T16:08:30.454Z,26.42
2022-12-17T16:11:16.077Z,24.98
2022-12-17T16:14:01.545Z,26.45
2022-12-17T16:16:47.061Z,25.30
2022-12-17T16:19:32.186Z,22.98
2022-12-17T16:22:17.431Z,24.50
2022-12-17T16:25:02.833Z,26.00
2022-12-17T16:27:48.046Z,24.05
2022-12-17T16:30:33.259Z,25.52
2022-12-17T16:33:19.215Z,25.60
2022-12-17T16:36:07.026Z,26.85
2022-12-17T16:38:54.613Z,23.55
2022-12-17T16:41:40.003Z,24.10
2022-12-17T16:44:25.426Z,25.63
2022-12-17T16:47:10.953Z,26.77
2022-12-17T16:49:56.569Z,27.10
2022-12-17T16:52:42.022Z,30.42
2022-12-17T16:55:27.271Z,30.50
2022-12-17T16:58:13.304Z,30.42
2022-12-17T17:00:58.455Z,29.05
2022-12-17T17:03:43.875Z,29.58
2022-12-17T17:06:33.590Z,29.95
2022-12-17T17:09:20.203Z,28.42
2022-12-17T17:12:05.935Z,29.60
2022-12-17T17:14:51.049Z,30.73
2022-12-17T17:17:55.922Z,31.38
2022-12-17T17:20:42.089Z,29.73
2022-12-17T17:23:27.402Z,31.55
2022-12-17T17:26:13.706Z,28.55
2022-12-17T17:28:59.883Z,27.23
2022-12-17T17:34:50.808Z,29.38
2022-12-17T17:37:35.919Z,29.00
2022-12-17T17:40:21.450Z,30.30
2022-12-17T17:43:06.635Z,30.38
2022-12-17T17:45:53.035Z,29.35
2022-12-17T17:48:38.701Z,29.77
2022-12-17T17:52:07.226Z,28.17
2022-12-17T17:54:35.642Z,27.83
2022-12-17T17:57:20.794Z,30.17
2022-12-17T18:00:06.700Z,29.25
2022-12-17T18:02:52.024Z,28.10
2022-12-17T18:05:41.751Z,27.30
2022-12-17T18:08:29.665Z,26.70
2022-12-17T18:11:22.916Z,30.25
2022-12-17T18:14:10.270Z,29.00
2022-12-17T18:16:55.420Z,27.15
2022-12-17T18:19:40.780Z,26.73
2022-12-17T18:22:28.241Z,25.58
2022-12-17T18:25:14.002Z,26.63
2022-12-17T18:28:01.863Z,21.75
2022-12-17T18:30:46.835Z,34.70
2022-12-17T18:33:31.988Z,28.73
2022-12-17T18:36:29.803Z,29.77
2022-12-17T18:39:18.075Z,25.00
2022-12-17T18:42:21.983Z,27.55
2022-12-17T18:45:07.686Z,30.25
2022-12-17T18:47:53.252Z,26.75
2022-12-17T18:50:38.351Z,27.65
2022-12-17T18:53:26.430Z,25.20
2022-12-17T18:56:19.367Z,27.02
2022-12-17T18:59:13.670Z,27.65
2022-12-17T19:01:58.988Z,25.75
2022-12-17T19:04:44.368Z,23.52
2022-12-17T19:07:29.428Z,24.55
2022-12-17T19:10:14.936Z,23.40
2022-12-17T19:12:59.987Z,23.45
2022-12-17T19:15:45.465Z,25.02
2022-12-17T19:18:31.055Z,23.38
2022-12-17T19:21:16.338Z,23.10
2022-12-17T19:24:04.327Z,23.67
2022-12-17T19:26:52.909Z,22.15
2022-12-17T19:29:38.351Z,24.42
2022-12-17T19:32:24.706Z,24.50
2022-12-17T19:35:10.182Z,22.15
2022-12-17T19:37:55.718Z,21.67
2022-12-17T19:40:41.662Z,23.85
2022-12-17T19:43:26.660Z,27.00
2022-12-17T19:46:17.507Z,25.50
2022-12-17T19:49:04.381Z,23.33
2022-12-17T19:51:49.447Z,24.25
2022-12-17T19:54:34.666Z,24.67
2022-12-17T19:57:20.337Z,24.95
2022-12-17T20:00:06.043Z,23.67
2022-12-17T20:02:58.209Z,24.80
2022-12-17T20:05:45.544Z,25.58
2022-12-17T20:08:32.152Z,24.33
2022-12-17T20:11:33.562Z,24.05
2022-12-17T20:14:21.955Z,22.27
2022-12-17T20:17:07.510Z,23.77
2022-12-17T20:19:53.745Z,22.02
2022-12-17T20:22:40.694Z,22.25
2022-12-17T20:25:25.840Z,23.83
2022-12-17T20:28:11.181Z,25.05
2022-12-17T20:30:58.035Z,23.80
2022-12-17T20:33:43.455Z,23.38
2022-12-17T20:36:29.078Z,23.50
2022-12-17T20:39:14.513Z,23.83
2022-12-17T20:41:59.696Z,22.98
2022-12-17T20:44:50.043Z,20.90
2022-12-17T20:47:38.574Z,22.20
2022-12-17T20:50:24.159Z,24.33
2022-12-17T20:53:09.375Z,21.00
2022-12-17T20:56:02.914Z,22.10
2022-12-17T20:58:51.843Z,26.80
2022-12-17T21:01:37.279Z,24.00
2022-12-17T21:04:23.221Z,23.48
2022-12-17T21:07:08.401Z,22.92
2022-12-17T21:09:53.683Z,21.75
2022-12-17T21:12:57.634Z,22.77
2022-12-17T21:15:48.906Z,21.95
2022-12-17T21:18:34.422Z,22.75
2022-12-17T21:21:23.370Z,23.60
2022-12-17T21:24:09.795Z,17.58
2022-12-17T21:26:54.980Z,21.75
2022-12-17T21:29:40.562Z,22.48
2022-12-17T21:32:31.875Z,22.02
2022-12-17T21:35:18.925Z,21.80
2022-12-17T21:38:04.268Z,20.63
2022-12-17T21:40:50.994Z,21.15
2022-12-17T21:43:37.102Z,22.02
2022-12-17T21:46:23.597Z,22.85
2022-12-17T21:49:09.804Z,22.63
2022-12-17T21:51:55.336Z,22.88
2022-12-17T21:54:40.651Z,22.88
2022-12-17T21:57:26.050Z,23.48
2022-12-17T22:00:12.079Z,20.02
2022-12-17T22:02:57.897Z,21.63
2022-12-17T22:05:43.528Z,23.50
2022-12-17T22:08:28.706Z,23.10
2022-12-17T22:11:17.029Z,22.27
2022-12-17T22:14:13.809Z,21.48
2022-12-17T22:17:02.527Z,21.75
2022-12-17T22:19:48.137Z,22.05
2022-12-17T22:22:33.327Z,23.05
2022-12-17T22:25:18.935Z,21.42
2022-12-17T22:28:04.930Z,22.15
2022-12-17T22:31:08.887Z,21.92
2022-12-17T22:34:16.941Z,20.67
2022-12-17T22:39:28.093Z,20.95
2022-12-17T22:44:30.302Z,20.98
2022-12-17T22:44:45.255Z,21.23
2022-12-17T22:46:34.942Z,21.88
2022-12-17T22:49:20.089Z,20.65
2022-12-17T22:52:05.403Z,21.48
2022-12-17T22:54:51.139Z,20.38
2022-12-17T22:57:38.497Z,20.90
2022-12-17T23:00:28.905Z,22.85
2022-12-17T23:03:14.542Z,20.83
2022-12-17T23:06:15.718Z,20.88
2022-12-17T23:09:01.227Z,21.85
2022-12-17T23:11:48.011Z,21.60
2022-12-17T23:14:33.134Z,19.73
2022-12-17T23:17:18.580Z,22.75
2022-12-17T23:20:04.110Z,22.65
2022-12-17T23:22:49.988Z,21.77
2022-12-17T23:25:35.532Z,20.83
2022-12-17T23:28:23.695Z,20.83
2022-12-17T23:31:18.965Z,22.00
2022-12-17T23:34:04.849Z,21.83
2022-12-17T23:36:50.446Z,22.35
2022-12-17T23:39:37.629Z,19.90
2022-12-17T23:42:22.928Z,21.40
2022-12-17T23:45:10.947Z,20.65
2022-12-17T23:47:57.409Z,20.20
2022-12-17T23:50:42.631Z,21.45
2022-12-17T23:53:28.918Z,20.83
2022-12-17T23:56:21.050Z,20.75
2022-12-17T23:59:06.518Z,20.90
